CDT,Max TemperatureF,Mean TemperatureF,Min TemperatureF,Max Dew PointF,MeanDew PointF,Min DewpointF,Max Humidity, Mean Humidity, Min Humidity, Max Sea Level PressureIn, Mean Sea Level PressureIn, Min Sea Level PressureIn, Max VisibilityMiles, Mean VisibilityMiles, Min VisibilityMiles, Max Wind SpeedMPH, Mean Wind SpeedMPH, Max Gust SpeedMPH,PrecipitationIn, CloudCover, Events, WindDirDegrees
2013-3-1,29,25,20,23,19,16,92,84,75,30.45,30.37,30.29,10,10,6,13,6,15,T,6,Snow,147
2013-3-2,48,36,24,32,26,21,92,73,53,30.27,30.12,29.96,10,10,6,16,6,18,0.00,3,,148
2013-3-3,42,34,26,33,29,25,92,79,65,29.99,29.76,29.60,10,7,3,18,10,21,0.25,4,Rain,112
2013-3-4,34,28,21,32,25,17,92,82,72,30.17,29.77,29.62,10,4,0,28,14,36,0.24,8,Fog-Snow,265
2013-3-5,22,14,6,16,11,3,92,80,68,30.51,30.42,30.21,10,8,2,25,12,31,T,6,Snow,347
2013-3-6,21,11,1,14,6,-2,96,84,71,30.49,30.35,30.09,10,8,4,21,11,24,T,4,Snow,84
2013-3-7,30,23,16,24,19,13,92,82,72,30.23,30.12,30.01,10,9,7,18,9,22,0.00,7,,152
2013-3-8,30,22,14,26,22,14,96,84,72,30.27,30.16,29.99,10,7,4,13,6,16,0.00,6,,62
2013-3-9,34,25,16,27,21,10,96,82,68,30.23,29.98,29.89,10,6,0,23,11,31,T,6,Fog-Snow,3
2013-3-10,27,19,11,15,11,6,88,74,60,30.39,30.26,30.09,10,10,8,21,9,27,0.00,1,,351
2013-3-11,39,28,16,26,19,12,88,69,50,30.13,29.97,29.90,10,9,2,32,16,42,0.01,3,Snow,283
2013-3-12,25,18,11,22,14,7,84,72,59,30.41,30.23,29.96,10,6,1,30,15,43,0.01,6,Snow,321
2013-3-13,49,28,7,28,16,4,91,65,39,30.40,30.21,30.01,10,10,10,16,7,20,0.00,2,,140
2013-3-14,62,44,26,41,31,23,100,72,44,30.14,30.08,30.01,10,10,8,20,7,26,0.00,2,,346
2013-3-15,26,16,6,22,13,2,84,79,73,30.27,30.05,29.95,10,6,2,21,12,24,0.01,8,Snow,55
2013-3-16,19,11,3,9,3,-2,86,74,61,30.32,30.28,30.16,10,10,7,15,7,19,T,5,Snow,28
2013-3-17,26,19,11,24,15,4,92,83,73,30.22,29.73,29.47,10,5,0,33,17,41,0.09,8,Fog-Rain-Snow,122
2013-3-18,19,11,2,13,3,-1,83,66,49,30.12,29.91,29.57,10,10,7,37,18,48,T,4,,317
2013-3-19,19,10,1,8,4,-2,87,72,56,30.51,30.31,30.03,10,8,2,24,11,32,T,6,Snow,342
2013-3-20,26,12,-2,11,4,-6,87,71,54,30.52,30.37,30.11,10,10,10,17,8,22,0.00,0,,84
2013-3-21,28,16,3,14,6,-2,88,63,38,30.15,30.08,29.95,10,10,10,22,13,25,0.00,2,,96
2013-3-22,27,20,12,23,14,7,92,83,73,30.18,30.04,29.97,10,5,0,14,9,16,0.16,8,Fog-Snow,83
2013-3-23,26,21,16,17,15,12,91,80,68,30.32,30.20,30.09,10,5,1,15,8,22,0.02,8,Snow,307
2013-3-24,25,20,14,18,14,11,88,78,68,30.40,30.26,30.16,10,6,1,18,10,22,0.04,8,Snow,336
2013-3-25,28,17,6,18,12,3,92,75,58,30.48,30.42,30.32,10,10,9,16,8,20,T,3,Snow,1
2013-3-26,34,19,3,23,13,0,92,77,61,30.41,30.31,30.21,10,10,10,16,9,20,0.00,0,,103
2013-3-27,42,26,10,31,19,7,92,78,64,30.30,30.26,30.21,10,10,6,15,8,17,0.00,0,,76
2013-3-28,46,32,18,34,24,17,100,83,65,30.26,30.21,30.15,10,4,0,13,7,17,0.00,4,Fog,67
2013-3-29,48,36,24,36,27,21,100,80,60,30.25,30.14,30.02,10,3,0,14,5,17,0.00,6,Fog,69
2013-3-30,54,40,26,34,30,25,100,71,41,30.08,30.04,29.99,10,5,1,28,10,35,0.00,2,,299
2013-3-31,34,27,19,24,18,11,75,59,43,30.34,30.17,30.05,10,10,9,21,10,31,T,4,,358